• Join FlightAware (Why Join?)
  • Login
  • US Flag 
03:04AM EDT


 

Airport Tracker/Info


-or-


 

Live Flight TrackerFlight Track Log ✈ DAL3759 ✈ 19-Sep-2013 ✈ KMEM - KRDU

Flight Track Log - Related Links

Times and Time Zones

All times are in EDT time to prevent confusion due to time zone crossing. See the DAL3759 flight status page for this flight to view local times or setup timezone preferences in your user account.

Time Position Orientation Groundspeed Altitude Reporting Facility
EDT Latitude Longitude Course Direction KTS MPH feet Rate Location/Type
06:45PM 35.0167 -89.9667 180° South 90 104 1,000  Level KMEM
06:46PM 34.9833 -89.9667 180° South 217 250 2,600 1,680 Climbing KMEM
06:47PM 34.9333 -89.9167 141° Southeast 282 325 4,300 1,980 Climbing KMEM
06:48PM 34.9500 -89.8333 76° East 291 335 6,600 2,220 Climbing KMEM
06:49PM 34.9833 -89.7333 68° East 295 339 9,000 1,860 Climbing KMEM
06:51PM 35.0364 -89.6267 59° Northeast 317 365 10,800 1,320 Climbing Memphis Center
06:52PM 35.0775 -89.5247 64° Northeast 328 377 11,800 1,200 Climbing Memphis Center
06:53PM 35.1267 -89.4125 62° Northeast 345 397 13,200 1,380 Climbing Memphis Center
06:54PM 35.1678 -89.3106 64° Northeast 359 413 14,600 1,380 Climbing Memphis Center
06:55PM 35.2125 -89.1956 65° Northeast 370 426 16,000 1,320 Climbing Memphis Center
06:56PM 35.2447 -89.0731 72° East 370 426 17,300 1,020 Climbing Memphis Center
06:57PM 35.2619 -88.9431 81° East 380 437 18,100 840 Climbing Memphis Center
06:58PM 35.2792 -88.8081 81° East 390 449 19,000 900 Climbing Memphis Center
06:59PM 35.2942 -88.6731 82° East 390 449 20,000 900 Climbing Memphis Center
07:00PM 35.3150 -88.5250 80° East 396 456 20,900 720 Climbing Memphis Center
07:01PM 35.3297 -88.4000 82° East 396 456 21,500 600 Climbing Memphis Center
07:02PM 35.3483 -88.2619 81° East 402 463 22,200 720 Climbing Memphis Center
07:03PM 35.3667 -88.1189 81° East 413 475 23,000 600 Climbing Memphis Center
07:04PM 35.3850 -87.9783 81° East 413 475 23,500 480 Climbing Memphis Center
07:05PM 35.4133 -87.8247 77° East 413 475 24,000 480 Climbing Memphis Center
07:06PM 35.4500 -87.6886 72° East 418 481 24,500 480 Climbing Memphis Center
07:07PM 35.4886 -87.5444 72° East 429 494 25,000 540 Climbing Memphis Center
07:08PM 35.5269 -87.4056 71° East 430 495 25,600 540 Climbing Memphis Center
07:09PM 35.5633 -87.2664 72° East 430 495 26,100 480 Climbing Memphis Center
07:10PM 35.5992 -87.1247 73° East 425 489 26,600 480 Climbing Memphis Center
07:11PM 35.6372 -86.9825 72° East 431 496 27,100 480 Climbing Memphis Center
07:12PM 35.6731 -86.8431 72° East 426 490 27,600 480 Climbing Memphis Center
07:13PM 35.7106 -86.7008 72° East 426 490 28,100 480 Climbing Memphis Center
07:14PM 35.7458 -86.5586 73° East 426 490 28,600 420 Climbing Memphis Center
07:15PM 35.7797 -86.4369 71° East 426 490 29,000 420 Climbing Memphis Center
07:16PM 35.8147 -86.2944 73° East 426 490 29,500 480 Climbing Memphis Center
07:17PM 35.8494 -86.1519 73° East 426 490 30,000 540 Climbing Memphis Center
07:18PM 35.8864 -86.0142 72° East 426 490 30,600 360 Climbing Memphis Center
07:19PM 35.9458 -85.7828 72° East 422 486 31,000 120 Climbing Atlanta Center
07:20PM 35.9792 -85.6400 74° East 416 479 31,000  Level Atlanta Center
07:21PM 36.0164 -85.4969 72° East 422 486 31,000  Level Atlanta Center
07:22PM 36.0533 -85.3486 73° East 437 503 31,000  Level Atlanta Center
07:23PM 36.0903 -85.2003 73° East 437 503 31,000  Level Atlanta Center
07:24PM 36.1189 -85.0489 77° East 443 510 31,000  Level Atlanta Center
07:25PM 36.1514 -84.8794 77° East 448 516 31,000  Level Atlanta Center
07:26PM 36.1753 -84.7256 79° East 454 522 31,000  Level Atlanta Center
07:27PM 36.2053 -84.5714 76° East 454 522 31,000  Level Atlanta Center
07:28PM 36.2308 -84.4172 78° East 454 522 31,000  Level Atlanta Center
07:29PM 36.2561 -84.2628 78° East 449 517 31,000  Level Atlanta Center
07:30PM 36.2836 -84.1108 77° East 449 517 31,000  Level Atlanta Center
07:31PM 36.3106 -83.9536 78° East 449 517 31,000  Level Atlanta Center
07:32PM 36.3314 -83.8169 79° East 449 517 31,000  Level Atlanta Center
07:33PM 36.3558 -83.6650 79° East 449 517 31,000  Level Atlanta Center
07:34PM 36.3825 -83.5128 78° East 449 517 31,000  Level Atlanta Center
07:35PM 36.4067 -83.3603 79° East 449 517 31,000  Level Atlanta Center
07:36PM 36.4331 -83.2025 78° East 449 517 31,000  Level Atlanta Center
07:37PM 36.4547 -83.0500 80° East 449 517 31,000  Level Atlanta Center
07:38PM 36.4825 -82.8975 77° East 449 517 31,000  Level Atlanta Center
07:39PM 36.5061 -82.7422 79° East 449 517 31,000  Level Atlanta Center
07:40PM 36.5294 -82.5867 79° East 449 517 31,000  Level Atlanta Center
07:41PM 36.5544 -82.4314 79° East 449 517 31,000 -540 Level Atlanta Center
07:42PM 36.5814 -82.2703 78° East 455 524 30,000 -900 Descending Atlanta Center
07:43PM 36.6100 -82.0914 79° East 476 548 29,300 -540 Descending Atlanta Center
07:44PM 36.6328 -81.9433 79° East 481 554 29,000 -180 Descending Atlanta Center
07:45PM 36.6611 -81.7822 78° East 481 554 29,000  Level Atlanta Center
07:46PM 36.6978 -81.6258 74° East 471 542 29,000  Level Atlanta Center
07:47PM 36.7381 -81.4561 73° East 471 542 29,000  Level Atlanta Center
07:49PM 36.8069 -81.1592 74° East 496 571 29,000  Level Washington Center
07:50PM 36.8411 -81.0006 75° East 480 552 29,000 -300 Level Washington Center
07:51PM 36.8750 -80.8550 74° East 450 518 28,500 -1,200 Descending Washington Center
07:52PM 36.9061 -80.7142 75° East 450 518 26,700 -1,740 Descending Washington Center
07:53PM 36.9397 -80.5581 75° East 456 525 25,100 -900 Descending Washington Center
07:54PM 36.9733 -80.3989 75° East 461 531 25,000 -300 Descending Washington Center
07:55PM 37.0067 -80.2450 75° East 466 536 24,600 -660 Descending Washington Center
07:56PM 37.0383 -80.0700 77° East 471 542 23,800 -840 Descending Washington Center
07:57PM 37.0000 -79.9194 108° East 446 513 23,000 -420 Descending Washington Center
07:58PM 36.9472 -79.7658 113° Southeast 452 520 23,000  Level Washington Center
07:59PM 36.8975 -79.6306 115° Southeast 464 534 23,000  Level Washington Center
08:00PM 36.8439 -79.4850 115° Southeast 464 534 23,000 -840 Level Washington Center
08:01PM 36.7581 -79.3614 131° Southeast 470 541 21,400 -2,460 Descending Washington Center
08:02PM 36.6533 -79.2425 138° Southeast 465 535 18,100 -2,820 Descending Washington Center
08:03PM 36.5586 -79.1294 136° Southeast 422 486 15,300 -2,400 Descending Washington Center
08:04PM 36.5144 -79.0756 136° Southeast 406 467 14,100 -1,980 Descending Washington Center
08:04PM 36.4922 -79.0489 136° Southeast 418 481 13,600 -2,040 Descending Washington Center
08:05PM 36.4397 -78.9897 138° Southeast 359 413 12,100 -1,980 Descending Washington Center
08:05PM 36.4175 -78.9631 136° Southeast 382 440 11,600 -1,560 Descending Washington Center
08:06PM 36.3292 -78.9153 156° South 349 402 10,100 -960 Descending Washington Center
08:07PM 36.2522 -78.8967 169° South 343 395 10,000 -120 Descending Washington Center
08:07PM 36.2339 -78.8881 159° South 346 398 10,000  Level Washington Center
08:08PM 36.1861 -78.8783 171° South 344 396 10,000 -300 Level Washington Center
08:08PM 36.1447 -78.8639 164° South 346 398 9,700 -1,200 Descending Washington Center
08:09PM 36.1011 -78.8542 170° South 311 358 8,800 -1,680 Descending Washington Center
08:09PM 36.0619 -78.8422 166° South 322 371 8,100 -900 Descending Washington Center
08:10PM 36.0117 -78.8428 181° South 261 300 7,800 -720 Descending Washington Center
08:10PM 35.9908 -78.8419 178° South 290 334 7,400 -1,380 Descending Washington Center
08:11PM 35.9506 -78.8661 206° Southwest 235 270 6,500 -1,260 Descending Washington Center
08:11PM 35.9314 -78.8806 211° Southwest 247 284 6,100 -1,260 Descending Washington Center
08:12PM 35.8950 -78.9150 217° Southwest 231 266 5,200 -1,380 Descending Washington Center
08:12PM 35.8844 -78.9247 217° Southwest 236 272 4,800 -1,140 Descending Washington Center
08:13PM 35.8442 -78.9436 201° Southwest 217 250 4,100 -1,200 Descending Washington Center
08:13PM 35.8322 -78.9278 133° Southeast 229 264 3,600 -1,680 Descending Washington Center
08:14PM 35.8208 -78.8811 107° East 203 234 2,400 -1,500 Descending Washington Center
08:15PM 35.8514 -78.8286 54° Northeast 146 168 1,000 -1,260 Descending Washington Center
08:17PM 35.8667 -78.7833 90° East  Level FlightAware Approximate
08:24PM 35.8776 -78.7875 90° East  Level Estimated